Jacksonville, FL (32099)

10:36 PM EDT on September 04, 2015 (GMT -0400)
Normandy Heights 32205 | | Change Station
CLOSE
Current Station
Personal Weather Station
Location: Jacksonville, FL
Elevation: 20 ft
Nearby Weather Stations

Elev 20 ft 30.30 °N, 81.76 °W | Updated 31 seconds ago

Thunderstorm
Thunderstorm
75.9 °F
Feels Like 75 °F
N
0.0
Wind Variable Wind from SE
Gusts 0.0 mph

Today
High -- | Low -- °F
--% Chance of Precip.
Yesterday
High -- | Low -- °F
Precip. -- in
7:05 AM 7:46 PM
Waning Gibbous, 53% visible
Pressure 29.99 in
Visibility 10.0 miles
Clouds Few 2500 ft
Scattered Clouds 10000 ft
Overcast 17000 ft
Heat Index 75 °F
Dew Point 76 °F
Humidity 99%
Rainfall 0.14 in
Snow Depth Not available.
UV 0 out of 12
Pollen 8.40 out of 12
Air Quality Not available.
Flu Activity Not available.
METAR KNIP 050153Z 28003KT 10SM FEW025 SCT100 OVC170 28/23 A3000 RMK AO2 RAE18 TSE22 SLP154 P0000 T02830228 $
Pressure 29.99 in
Visibility 10.0 miles
Clouds Few 2500 ft
Scattered Clouds 10000 ft
Overcast 17000 ft
Heat Index 75 °F
Dew Point 76 °F
Humidity 99%
Rainfall 0.14 in
Snow Depth Not available.
UV 0 out of 12
Pollen 8.40 out of 12
Air Quality Not available.
Flu Activity Not available.
METAR KNIP 050153Z 28003KT 10SM FEW025 SCT100 OVC170 28/23 A3000 RMK AO2 RAE18 TSE22 SLP154 P0000 T02830228 $

10-Day Weather Forecast

×

Almanac

Astronomy

Sep. 04, 2015 Rise Set
Actual Time
Civil Twilight
Nautical Twilight
Astronomical Twilight
Moon
Length of Visible Light
Length of Day
Tomorrow will be .
, % of the Moon is Illuminated

Today's Extremes

State Highs State Lows

Community

WunderPhotos

Upload Photos

1,852,393 photos uploaded!

WunderBlogs® & News

Nearby

Air Quality

  Air Quality AQ Index Pollutant
Not available.

Snow Depth

Station Depth Elevation

Earthquake Activity

City Distance Mag. Time & Date
Minimum magnitude displayed is 2.5.

Coastal Water Temperatures

Place Temperature

Stations

Nearby Weather Stations

Station Location Temp. Windchill Dew Point Humidity Wind Precip. Elev Updated Type